Time;durP1;ratioP1;P1;durP2;ratioP2;P2;SDS_P1;SDS_P2;PMS_P1;PMS_P2;Temp;Humidity;BMP_temperature;BMP_pressure;BME280_temperature;BME280_humidity;BME280_pressure;Samples;Min_cycle;Max_cycle;Signal;HPM_P1;HPM_P2
2022/06/02 00:01:11;;;;;;;10.67;7.60;;;9.20;99.90;;;;;;5012976;28;20221;-85
2022/06/02 00:03:48;;;;;;;10.50;7.50;;;9.20;99.90;;;;;;5012669;28;20224;-84
2022/06/02 00:06:44;;;;;;;11.17;8.07;;;9.10;99.90;;;;;;5013151;28;20277;-85
2022/06/02 00:09:28;;;;;;;11.33;7.63;;;9.10;99.90;;;;;;5012085;28;20203;-84
2022/06/02 00:12:12;;;;;;;11.10;7.77;;;9.00;99.90;;;;;;5013400;28;20201;-84
2022/06/02 00:15:02;;;;;;;10.53;7.60;;;8.90;99.90;;;;;;5013605;28;20171;-84
2022/06/02 00:17:39;;;;;;;12.17;7.63;;;8.90;99.90;;;;;;5013714;28;20214;-84
2022/06/02 00:20:12;;;;;;;10.93;7.73;;;8.90;99.90;;;;;;5013486;28;20174;-85
2022/06/02 00:22:47;;;;;;;12.57;8.63;;;8.80;99.90;;;;;;5013207;28;20238;-85
2022/06/02 00:25:51;;;;;;;10.70;8.00;;;8.70;99.90;;;;;;5013738;28;20265;-85
2022/06/02 00:28:35;;;;;;;12.93;8.70;;;8.70;99.90;;;;;;5013496;28;20179;-85
2022/06/02 00:31:30;;;;;;;12.40;8.57;;;8.60;99.90;;;;;;5013275;28;20200;-84
2022/06/02 00:34:12;;;;;;;16.47;8.93;;;8.80;99.90;;;;;;5013353;28;20324;-84
2022/06/02 00:36:56;;;;;;;15.33;7.80;;;8.70;99.90;;;;;;5013062;28;20179;-84
2022/06/02 00:39:22;;;;;;;12.37;8.07;;;8.50;99.90;;;;;;5013009;28;20635;-85
2022/06/02 00:41:54;;;;;;;13.67;8.17;;;8.60;99.90;;;;;;5012917;28;20198;-84
2022/06/02 00:44:44;;;;;;;12.53;8.00;;;8.60;99.90;;;;;;5012646;28;20210;-84
2022/06/02 00:47:26;;;;;;;11.20;8.30;;;8.50;99.90;;;;;;5013630;28;20194;-84
2022/06/02 00:50:06;;;;;;;13.17;8.63;;;8.50;99.90;;;;;;5013150;28;20708;-84
2022/06/02 00:52:37;;;;;;;13.70;8.87;;;8.40;99.90;;;;;;5012865;28;20270;-84
2022/06/02 00:58:40;;;;;;;12.47;8.10;;;8.60;99.90;;;;;;5014607;28;20689;-84
2022/06/02 01:01:13;;;;;;;14.33;8.90;;;8.50;99.90;;;;;;4973590;28;20196;-84
2022/06/02 01:03:45;;;;;;;12.63;7.80;;;8.50;99.90;;;;;;5004444;28;20210;-84
2022/06/02 01:06:13;;;;;;;13.93;8.87;;;8.40;99.90;;;;;;5014344;28;20170;-85
2022/06/02 01:08:51;;;;;;;14.43;8.63;;;8.30;99.90;;;;;;5014125;28;20166;-84
2022/06/02 01:11:35;;;;;;;12.83;8.43;;;8.30;99.90;;;;;;5012216;28;20634;-85
2022/06/02 01:14:07;;;;;;;12.77;9.10;;;8.30;99.90;;;;;;5012921;28;20198;-87
2022/06/02 01:17:10;;;;;;;14.60;8.97;;;8.30;99.90;;;;;;5012763;28;20175;-88
2022/06/02 01:20:03;;;;;;;14.37;8.63;;;8.30;99.90;;;;;;5012682;28;20677;-88
2022/06/02 01:22:58;;;;;;;11.37;7.90;;;8.20;99.90;;;;;;5012185;28;20194;-85
2022/06/02 01:25:36;;;;;;;13.20;8.40;;;8.20;99.90;;;;;;5012884;28;20169;-85
2022/06/02 01:28:22;;;;;;;13.27;7.93;;;8.20;99.90;;;;;;5012518;28;20166;-85
2022/06/02 01:31:12;;;;;;;11.60;7.77;;;8.00;99.90;;;;;;5012263;28;20256;-85
2022/06/02 01:33:44;;;;;;;13.90;8.97;;;8.00;99.90;;;;;;5012473;28;20171;-85
2022/06/02 01:36:31;;;;;;;13.80;8.33;;;8.10;99.90;;;;;;5012136;28;20168;-85
2022/06/02 01:39:22;;;;;;;12.63;8.53;;;8.10;99.90;;;;;;5012301;28;20174;-86
2022/06/02 01:42:00;;;;;;;14.73;8.97;;;8.10;99.90;;;;;;5012583;28;20256;-85
2022/06/02 01:44:45;;;;;;;13.43;9.20;;;8.10;99.90;;;;;;5012852;28;20682;-84
2022/06/02 01:47:21;;;;;;;14.43;8.93;;;8.00;99.90;;;;;;5013392;28;20509;-84
2022/06/02 01:49:49;;;;;;;13.77;9.23;;;8.00;99.90;;;;;;5012408;28;20165;-85
2022/06/02 01:52:29;;;;;;;13.10;9.00;;;7.90;99.90;;;;;;5012157;28;20208;-84
2022/06/02 01:55:14;;;;;;;15.77;9.73;;;7.80;99.90;;;;;;5012511;28;20178;-85
2022/06/02 01:58:11;;;;;;;13.27;9.03;;;7.70;99.90;;;;;;5012687;28;20689;-85
2022/06/02 02:00:37;;;;;;;15.80;9.53;;;7.70;99.90;;;;;;5012406;28;20560;-85
2022/06/02 02:03:24;;;;;;;11.87;8.80;;;7.70;99.90;;;;;;5011884;28;20201;-85
2022/06/02 02:06:04;;;;;;;15.60;9.60;;;7.60;99.90;;;;;;5012312;28;20185;-86
2022/06/02 02:08:58;;;;;;;16.50;9.23;;;7.70;99.90;;;;;;5012307;28;20162;-85
2022/06/02 02:11:52;;;;;;;13.70;9.07;;;7.70;99.90;;;;;;5012004;28;20796;-85
2022/06/02 02:15:12;;;;;;;19.93;10.50;;;7.80;99.90;;;;;;5012265;28;20260;-85
2022/06/02 02:17:52;;;;;;;14.63;9.37;;;7.70;99.90;;;;;;4991379;28;20179;-85
2022/06/02 02:20:18;;;;;;;14.00;9.23;;;7.70;99.90;;;;;;5010168;28;20185;-85
2022/06/02 02:22:59;;;;;;;15.70;9.33;;;7.80;99.90;;;;;;5011704;28;20201;-85
2022/06/02 02:25:46;;;;;;;16.80;10.13;;;7.80;99.90;;;;;;5012706;28;20640;-85
2022/06/02 02:28:30;;;;;;;15.30;10.20;;;7.90;99.90;;;;;;5011927;28;20189;-85
2022/06/02 02:31:17;;;;;;;17.23;11.17;;;7.70;99.90;;;;;;5011833;28;20198;-85
2022/06/02 02:34:01;;;;;;;16.10;10.37;;;7.60;99.90;;;;;;5013030;28;20659;-86
2022/06/02 02:36:47;;;;;;;18.63;10.53;;;7.70;99.90;;;;;;5011920;28;20204;-85
2022/06/02 02:39:25;;;;;;;13.80;9.63;;;7.60;99.90;;;;;;5011895;28;20177;-85
2022/06/02 02:42:00;;;;;;;17.63;10.47;;;7.60;99.90;;;;;;5011506;28;20198;-85
2022/06/02 02:44:43;;;;;;;18.07;10.13;;;7.60;99.90;;;;;;5011588;28;20197;-85
2022/06/02 02:47:14;;;;;;;15.33;9.80;;;7.60;99.90;;;;;;5012009;28;20159;-85
2022/06/02 02:50:08;;;;;;;15.37;9.67;;;7.40;99.90;;;;;;5011708;28;20259;-86
2022/06/02 02:52:42;;;;;;;14.20;9.40;;;7.30;99.90;;;;;;5005807;28;20205;-85
2022/06/02 02:55:17;;;;;;;18.13;9.93;;;7.30;99.90;;;;;;5011550;28;20188;-86
2022/06/02 02:58:20;;;;;;;16.47;10.03;;;7.40;99.90;;;;;;5011748;28;20170;-85
2022/06/02 03:01:06;;;;;;;17.50;10.63;;;7.50;99.90;;;;;;5012189;28;20263;-85
2022/06/02 03:03:47;;;;;;;21.50;10.93;;;7.50;99.90;;;;;;5015335;28;20261;-85
2022/06/02 03:06:23;;;;;;;17.07;10.47;;;7.40;99.90;;;;;;5015984;28;20533;-86
2022/06/02 03:09:17;;;;;;;16.10;10.07;;;7.40;99.90;;;;;;5015499;28;20648;-85
2022/06/02 03:12:21;;;;;;;15.60;9.80;;;7.40;99.90;;;;;;5015664;28;20275;-84
2022/06/02 03:15:25;;;;;;;15.97;10.57;;;7.50;99.90;;;;;;4975421;28;20250;-85
2022/06/02 03:18:24;;;;;;;17.43;10.73;;;7.40;99.90;;;;;;4962630;28;20656;-85
2022/06/02 03:21:10;;;;;;;19.83;9.93;;;7.30;99.90;;;;;;5013923;28;20195;-85
2022/06/02 03:23:59;;;;;;;17.13;11.07;;;7.30;99.90;;;;;;5016168;28;20213;-87
2022/06/02 03:26:58;;;;;;;18.90;11.00;;;7.40;99.90;;;;;;5016227;28;20182;-88
2022/06/02 03:29:52;;;;;;;20.10;11.70;;;7.40;99.90;;;;;;5016635;28;20524;-87
2022/06/02 03:32:42;;;;;;;18.73;11.23;;;7.50;99.90;;;;;;5015152;28;20675;-87
2022/06/02 03:35:29;;;;;;;23.27;11.00;;;7.50;99.90;;;;;;5015164;28;20253;-87
2022/06/02 03:37:54;;;;;;;16.73;10.73;;;7.50;99.90;;;;;;5015822;28;20252;-88
2022/06/02 03:40:32;;;;;;;18.63;10.10;;;7.50;99.90;;;;;;5015440;28;20228;-87
2022/06/02 03:43:15;;;;;;;19.87;10.87;;;7.50;99.90;;;;;;5014821;28;20194;-87
2022/06/02 03:45:47;;;;;;;15.53;10.23;;;7.50;99.90;;;;;;5014983;28;20181;-86
2022/06/02 03:48:37;;;;;;;15.70;10.37;;;7.50;99.90;;;;;;5014787;28;20174;-87
2022/06/02 03:51:13;;;;;;;16.20;10.70;;;7.50;99.90;;;;;;5015095;28;20216;-88
2022/06/02 03:53:38;;;;;;;16.53;10.73;;;7.60;99.90;;;;;;5015022;28;20165;-87
2022/06/02 03:56:07;;;;;;;20.63;11.73;;;7.60;99.90;;;;;;5015283;28;20339;-86
2022/06/02 03:58:45;;;;;;;20.60;12.30;;;7.50;99.90;;;;;;5014576;28;20179;-87
2022/06/02 04:01:18;;;;;;;19.43;12.00;;;7.60;99.90;;;;;;5014421;28;20692;-86
2022/06/02 04:04:05;;;;;;;22.93;13.20;;;7.70;99.90;;;;;;5014443;28;20286;-87
2022/06/02 04:06:49;;;;;;;20.93;12.17;;;7.70;99.90;;;;;;5017203;28;20243;-86
2022/06/02 04:09:54;;;;;;;19.30;12.10;;;7.70;99.90;;;;;;5015739;28;20162;-85
2022/06/02 04:15:09;;;;;;;21.47;12.57;;;7.90;99.90;;;;;;5017434;28;20228;-86
2022/06/02 04:17:41;;;;;;;19.17;12.47;;;7.90;99.90;;;;;;5016647;28;20195;-86
2022/06/02 04:22:57;;;;;;;31.10;14.50;;;8.00;99.90;;;;;;5016659;28;20213;-87
2022/06/02 04:25:46;;;;;;;27.77;13.97;;;8.10;99.90;;;;;;5016320;28;20676;-86
2022/06/02 04:28:17;;;;;;;30.10;15.30;;;8.10;99.90;;;;;;5006024;28;20178;-86
2022/06/02 04:31:05;;;;;;;24.47;14.53;;;8.30;99.90;;;;;;5015503;28;20228;-85
2022/06/02 04:33:49;;;;;;;25.20;14.70;;;8.50;99.90;;;;;;5015793;28;20185;-85
2022/06/02 04:36:21;;;;;;;19.40;12.17;;;9.00;99.90;;;;;;5015008;28;20177;-86
2022/06/02 04:39:04;;;;;;;14.43;9.63;;;9.10;99.90;;;;;;5015431;28;20655;-85
2022/06/02 04:41:57;;;;;;;14.13;8.80;;;9.40;99.90;;;;;;5014970;28;20675;-85
2022/06/02 04:44:27;;;;;;;11.70;8.80;;;9.70;99.90;;;;;;4996444;28;20220;-85
2022/06/02 04:47:15;;;;;;;11.00;8.67;;;10.00;99.90;;;;;;5015768;28;20198;-85
2022/06/02 04:49:53;;;;;;;13.37;8.00;;;10.00;99.90;;;;;;5015530;28;20160;-85
2022/06/02 04:52:33;;;;;;;12.43;7.87;;;10.20;99.90;;;;;;5014664;28;20251;-85
2022/06/02 04:55:43;;;;;;;11.73;8.07;;;10.60;99.90;;;;;;5014822;28;20651;-85
2022/06/02 04:58:21;;;;;;;12.40;8.03;;;11.00;99.90;;;;;;4995889;28;20643;-86
2022/06/02 05:01:03;;;;;;;12.33;8.07;;;11.00;99.90;;;;;;5014470;28;20256;-86
2022/06/02 05:03:55;;;;;;;14.03;9.10;;;11.10;99.90;;;;;;5015415;28;20194;-88
2022/06/02 05:06:42;;;;;;;10.57;8.80;;;11.20;99.90;;;;;;5015339;28;20662;-87
2022/06/02 05:09:45;;;;;;;12.80;9.07;;;11.10;99.90;;;;;;5014977;28;20158;-88
2022/06/02 05:12:35;;;;;;;13.00;9.50;;;11.10;99.90;;;;;;5005131;28;20561;-88
2022/06/02 05:15:03;;;;;;;12.57;8.73;;;11.50;99.90;;;;;;5014582;28;20303;-85
2022/06/02 05:17:38;;;;;;;13.13;8.80;;;11.50;99.90;;;;;;5015056;28;20170;-87
2022/06/02 05:20:22;;;;;;;10.13;8.13;;;11.60;99.90;;;;;;5014823;28;20161;-87
2022/06/02 05:23:00;;;;;;;13.43;8.17;;;12.10;99.90;;;;;;5014231;28;20204;-87
2022/06/02 05:25:58;;;;;;;9.80;7.97;;;12.20;99.90;;;;;;5014189;28;20277;-87
2022/06/02 05:28:54;;;;;;;12.10;8.50;;;12.40;99.90;;;;;;5014537;28;20166;-87
2022/06/02 05:31:40;;;;;;;10.93;8.07;;;12.60;99.90;;;;;;5014754;28;20288;-88
2022/06/02 05:34:15;;;;;;;10.27;7.97;;;12.60;99.90;;;;;;5015891;28;20163;-86
2022/06/02 05:37:02;;;;;;;11.87;7.90;;;12.70;99.90;;;;;;5015132;28;20653;-87
2022/06/02 05:39:52;;;;;;;11.27;8.20;;;13.00;99.90;;;;;;5014948;28;20162;-88
2022/06/02 05:42:47;;;;;;;12.40;7.80;;;13.10;99.90;;;;;;5013177;28;20194;-88
2022/06/02 05:45:30;;;;;;;8.73;6.77;;;13.30;99.90;;;;;;4995226;28;20178;-88
2022/06/02 05:48:24;;;;;;;7.60;6.53;;;13.40;99.90;;;;;;5014107;28;20631;-88
2022/06/02 05:51:11;;;;;;;8.43;7.13;;;13.70;99.90;;;;;;5013135;28;20186;-88
2022/06/02 05:53:43;;;;;;;7.03;5.50;;;13.90;99.90;;;;;;5013830;28;20542;-88
2022/06/02 05:56:23;;;;;;;8.23;5.88;;;14.20;99.90;;;;;;5013499;28;20194;-89
2022/06/02 05:58:54;;;;;;;8.07;5.60;;;14.80;99.90;;;;;;5013952;28;20166;-88
2022/06/02 06:01:46;;;;;;;7.05;5.45;;;14.50;99.90;;;;;;5012255;28;20205;-86
2022/06/02 06:04:30;;;;;;;9.70;5.80;;;14.90;99.90;;;;;;4996797;28;20237;-83
2022/06/02 06:07:08;;;;;;;7.05;5.53;;;14.70;99.90;;;;;;5012526;28;20177;-80
2022/06/02 06:09:40;;;;;;;6.97;5.07;;;14.60;99.90;;;;;;5012048;28;20171;-82
2022/06/02 06:12:30;;;;;;;6.22;5.07;;;15.50;99.90;;;;;;5011829;28;20289;-82
2022/06/02 06:15:19;;;;;;;5.25;4.75;;;15.50;99.90;;;;;;5011642;28;20169;-82
2022/06/02 06:18:14;;;;;;;10.32;5.28;;;15.70;99.90;;;;;;5012486;28;20547;-80
2022/06/02 06:20:58;;;;;;;7.40;5.50;;;15.20;99.90;;;;;;5011329;28;20241;-82
2022/06/02 06:23:51;;;;;;;6.00;4.78;;;15.60;99.90;;;;;;5011259;28;20198;-83
2022/06/02 06:26:23;;;;;;;8.50;4.93;;;15.00;99.90;;;;;;5011660;28;20202;-83
2022/06/02 06:29:14;;;;;;;7.28;5.00;;;15.60;99.90;;;;;;5013030;28;20246;-81
2022/06/02 06:32:12;;;;;;;5.32;4.50;;;15.20;99.90;;;;;;5006795;28;20621;-82
2022/06/02 06:34:51;;;;;;;5.18;4.20;;;15.90;99.90;;;;;;5012466;28;20173;-83
2022/06/02 06:37:19;;;;;;;6.35;4.38;;;16.30;99.90;;;;;;5012425;28;20330;-82
2022/06/02 06:40:07;;;;;;;5.03;3.70;;;16.50;99.90;;;;;;5013572;28;20333;-82
2022/06/02 06:43:13;;;;;;;4.20;3.75;;;16.50;99.90;;;;;;5011999;28;20233;-82
2022/06/02 06:45:48;;;;;;;4.90;3.90;;;16.50;99.90;;;;;;5011931;28;20182;-82
2022/06/02 06:48:23;;;;;;;6.75;3.80;;;17.00;99.90;;;;;;5012284;28;20224;-83
2022/06/02 06:51:18;;;;;;;4.72;2.97;;;16.70;99.90;;;;;;5012272;28;20792;-83
2022/06/02 06:53:56;;;;;;;4.47;3.80;;;16.00;99.90;;;;;;4977174;28;20187;-83
2022/06/02 06:56:39;;;;;;;3.28;2.90;;;16.80;99.90;;;;;;5012201;28;20247;-83
2022/06/02 06:59:19;;;;;;;4.53;3.17;;;17.50;99.90;;;;;;5011855;28;20218;-82
2022/06/02 07:02:02;;;;;;;5.20;2.55;;;17.60;99.90;;;;;;5011868;28;20194;-81
2022/06/02 07:04:37;;;;;;;3.38;2.78;;;18.30;99.90;;;;;;5013447;28;20206;-81
2022/06/02 07:07:27;;;;;;;5.45;2.92;;;18.20;99.90;;;;;;5012317;28;20240;-84
2022/06/02 07:10:35;;;;;;;3.08;2.78;;;18.10;99.90;;;;;;5012187;28;20181;-84
2022/06/02 07:13:18;;;;;;;3.47;2.65;;;18.00;99.90;;;;;;5012258;28;20174;-83
2022/06/02 07:16:19;;;;;;;4.57;2.28;;;17.00;99.90;;;;;;5011943;28;20237;-82
2022/06/02 07:18:56;;;;;;;2.60;2.40;;;17.50;99.90;;;;;;5011741;28;20174;-83
2022/06/02 07:21:36;;;;;;;5.18;2.90;;;17.30;99.90;;;;;;5011685;28;20284;-83
2022/06/02 07:24:15;;;;;;;2.92;2.72;;;18.00;99.90;;;;;;5012575;28;20209;-85
2022/06/02 07:27:02;;;;;;;3.78;3.35;;;18.40;99.90;;;;;;5010859;28;20171;-83
2022/06/02 07:29:48;;;;;;;3.42;3.00;;;18.40;99.90;;;;;;5011190;28;20170;-82
2022/06/02 07:32:35;;;;;;;3.50;3.20;;;18.80;99.90;;;;;;5014260;28;20191;-83
2022/06/02 07:35:26;;;;;;;7.30;3.85;;;18.70;99.90;;;;;;5012537;28;20206;-82
2022/06/02 07:38:21;;;;;;;6.80;4.13;;;18.50;99.90;;;;;;5015026;28;20175;-82
2022/06/02 07:41:41;;;;;;;5.00;4.57;;;18.60;99.90;;;;;;5012476;28;20199;-84
2022/06/02 07:44:07;;;;;;;5.53;4.40;;;19.00;99.90;;;;;;4956282;28;20207;-83
2022/06/02 07:46:38;;;;;;;5.50;4.30;;;19.20;99.90;;;;;;5007814;28;20257;-82
2022/06/02 07:49:42;;;;;;;5.00;4.22;;;19.00;99.90;;;;;;5015464;28;20171;-82
2022/06/02 07:52:30;;;;;;;7.68;4.22;;;19.30;99.90;;;;;;5017194;28;20248;-83
2022/06/02 07:55:36;;;;;;;6.70;4.00;;;19.50;99.90;;;;;;5021577;28;20175;-82
2022/06/02 07:58:13;;;;;;;5.88;3.85;;;19.10;99.90;;;;;;5024944;28;20163;-83
2022/06/02 08:00:49;;;;;;;4.45;4.05;;;18.80;99.90;;;;;;5023361;28;20285;-82
2022/06/02 08:03:22;;;;;;;8.02;4.80;;;18.40;99.90;;;;;;5025535;28;20265;-83
2022/06/02 08:05:59;;;;;;;6.70;4.40;;;17.40;99.90;;;;;;5023993;28;20175;-82
2022/06/02 08:08:43;;;;;;;6.82;4.65;;;17.30;99.90;;;;;;5028950;28;20197;-83
2022/06/02 08:11:31;;;;;;;5.40;4.35;;;17.10;99.90;;;;;;5026582;28;20210;-84
2022/06/02 08:14:24;;;;;;;8.07;4.90;;;17.00;99.90;;;;;;5026305;28;20190;-83
2022/06/02 08:16:56;;;;;;;4.72;4.22;;;16.50;99.90;;;;;;5022900;28;20250;-82
2022/06/02 08:19:37;;;;;;;6.60;4.40;;;17.00;99.90;;;;;;5022562;28;20174;-83
2022/06/02 08:22:06;;;;;;;5.57;4.47;;;17.40;99.90;;;;;;5020354;28;20214;-83
2022/06/02 08:24:50;;;;;;;5.07;4.30;;;18.10;99.90;;;;;;5020398;28;20698;-82
2022/06/02 08:27:41;;;;;;;7.18;4.45;;;17.20;99.90;;;;;;5020610;28;20178;-83
2022/06/02 08:30:16;;;;;;;5.70;4.30;;;17.50;99.90;;;;;;5020149;28;20243;-82
2022/06/02 08:33:19;;;;;;;4.57;3.55;;;18.40;99.90;;;;;;5021120;28;20605;-84
2022/06/02 08:35:50;;;;;;;4.78;3.70;;;18.80;99.90;;;;;;5018189;28;20566;-83
2022/06/02 08:38:41;;;;;;;5.90;3.67;;;18.70;99.90;;;;;;5018594;28;20179;-84
2022/06/02 08:41:28;;;;;;;5.20;3.50;;;19.00;99.90;;;;;;5017235;28;20313;-85
2022/06/02 08:44:25;;;;;;;3.72;2.95;;;19.50;97.40;;;;;;5018795;28;20682;-83
2022/06/02 08:47:13;;;;;;;3.22;3.00;;;20.20;98.70;;;;;;5018922;28;20177;-81
2022/06/02 08:49:45;;;;;;;3.28;2.90;;;19.30;96.20;;;;;;5017389;28;20534;-83
2022/06/02 08:52:41;;;;;;;4.80;3.35;;;19.70;97.90;;;;;;5017992;28;20221;-84
2022/06/02 08:55:32;;;;;;;4.40;3.13;;;20.00;97.60;;;;;;5018984;28;20191;-83
2022/06/02 08:58:16;;;;;;;3.63;3.13;;;20.40;97.10;;;;;;5017846;28;20179;-84
2022/06/02 09:00:42;;;;;;;3.58;3.28;;;19.70;95.50;;;;;;5018530;28;20202;-83
2022/06/02 09:03:59;;;;;;;3.80;2.90;;;20.00;95.50;;;;;;5016812;28;20202;-84
2022/06/02 09:06:56;;;;;;;3.95;2.38;;;20.30;96.50;;;;;;5016173;28;20171;-84
2022/06/02 09:09:53;;;;;;;3.63;2.63;;;19.90;94.00;;;;;;5015599;28;20175;-84
2022/06/02 09:12:46;;;;;;;2.45;2.25;;;19.40;95.60;;;;;;5016533;28;20187;-84
2022/06/02 09:15:37;;;;;;;3.90;2.38;;;20.40;94.00;;;;;;5017167;28;20163;-83
2022/06/02 09:18:06;;;;;;;2.33;2.03;;;20.80;90.70;;;;;;5018702;28;20171;-83
2022/06/02 09:20:50;;;;;;;2.10;2.00;;;20.40;90.70;;;;;;5017768;28;20174;-83
2022/06/02 09:23:16;;;;;;;2.78;2.28;;;19.60;90.90;;;;;;5017529;28;20201;-82
2022/06/02 09:25:56;;;;;;;4.85;3.17;;;20.90;91.30;;;;;;5016309;28;20175;-83
2022/06/02 09:28:49;;;;;;;4.43;2.92;;;21.60;91.00;;;;;;5015259;28;20175;-84
2022/06/02 09:31:58;;;;;;;4.43;2.70;;;21.20;90.30;;;;;;5015667;28;20752;-83
2022/06/02 09:34:49;;;;;;;2.90;2.53;;;19.80;91.30;;;;;;5019050;28;20221;-83
2022/06/02 09:37:27;;;;;;;4.72;2.55;;;20.30;92.20;;;;;;5016304;28;20232;-82
2022/06/02 09:40:16;;;;;;;4.03;3.08;;;20.70;91.50;;;;;;5016400;28;20623;-83
2022/06/02 09:43:13;;;;;;;3.92;2.78;;;20.10;91.80;;;;;;5016045;28;20200;-83
2022/06/02 09:45:54;;;;;;;5.75;2.92;;;20.10;92.50;;;;;;5015926;28;20167;-84
2022/06/02 09:48:49;;;;;;;4.40;3.00;;;19.70;93.80;;;;;;5014385;28;20647;-82
2022/06/02 09:51:29;;;;;;;5.10;2.60;;;20.50;93.80;;;;;;5014999;28;20194;-83
2022/06/02 09:54:31;;;;;;;3.30;2.97;;;20.70;91.40;;;;;;5015021;28;20171;-83
2022/06/02 10:00:46;;;;;;;6.15;2.42;;;20.70;88.10;;;;;;5017516;28;20170;-83
2022/06/02 10:03:30;;;;;;;5.05;2.13;;;21.10;86.00;;;;;;5015726;28;20206;-84
2022/06/02 10:06:14;;;;;;;2.90;1.88;;;21.30;87.40;;;;;;5014893;28;20189;-83
2022/06/02 10:09:08;;;;;;;2.58;2.38;;;21.40;83.60;;;;;;5015247;28;20607;-83
2022/06/02 10:15:18;;;;;;;6.20;2.80;;;21.40;85.00;;;;;;5016457;28;20213;-84
2022/06/02 10:18:01;;;;;;;3.03;2.53;;;21.60;86.30;;;;;;5015835;28;20170;-82
2022/06/02 10:21:00;;;;;;;6.18;2.97;;;20.40;90.50;;;;;;5015348;28;20174;-83
2022/06/02 10:24:00;;;;;;;2.92;2.25;;;20.40;88.80;;;;;;5012552;28;20223;-84
2022/06/02 10:26:38;;;;;;;2.95;2.55;;;20.40;89.90;;;;;;5015581;28;20170;-82
2022/06/02 10:29:30;;;;;;;4.20;2.50;;;21.20;89.20;;;;;;5014500;28;20269;-82
2022/06/02 10:32:32;;;;;;;4.32;2.55;;;21.60;85.90;;;;;;4996015;28;20206;-82
2022/06/02 10:35:45;;;;;;;3.53;2.28;;;21.30;83.90;;;;;;5011858;28;20178;-82
2022/06/02 10:38:21;;;;;;;5.45;3.97;;;20.60;84.60;;;;;;4976643;28;20192;-81
2022/06/02 10:41:05;;;;;;;6.28;3.50;;;20.60;90.00;;;;;;5012232;28;20547;-81
2022/06/02 10:43:49;;;;;;;4.15;3.60;;;20.40;89.70;;;;;;5011893;28;20242;-82
2022/06/02 10:46:43;;;;;;;3.67;3.38;;;19.40;90.70;;;;;;5011969;28;20538;-81
2022/06/02 10:49:11;;;;;;;4.40;4.00;;;19.80;91.30;;;;;;5012207;28;20229;-82
2022/06/02 10:52:15;;;;;;;3.92;3.63;;;19.90;88.00;;;;;;5011852;28;20293;-82
2022/06/02 10:55:08;;;;;;;5.95;3.60;;;20.40;90.20;;;;;;4992726;28;20209;-82
2022/06/02 10:57:52;;;;;;;4.50;3.10;;;20.70;86.00;;;;;;5012624;28;20652;-83
2022/06/02 11:00:35;;;;;;;2.75;2.40;;;21.20;86.20;;;;;;5011265;28;20166;-84
2022/06/02 11:03:41;;;;;;;2.75;2.55;;;21.10;81.90;;;;;;5011402;28;20203;-83
2022/06/02 11:06:37;;;;;;;3.58;2.50;;;21.70;83.00;;;;;;5011246;28;20175;-82
2022/06/02 11:09:37;;;;;;;2.38;2.17;;;21.60;82.20;;;;;;5011514;28;20170;-83
2022/06/02 11:12:18;;;;;;;4.38;2.20;;;22.00;83.40;;;;;;5010886;28;20218;-84
2022/06/02 11:15:09;;;;;;;3.15;2.70;;;22.70;79.20;;;;;;5011967;28;20179;-83
2022/06/02 11:18:12;;;;;;;4.90;2.70;;;21.90;82.10;;;;;;5012011;28;20194;-83
2022/06/02 11:21:22;;;;;;;3.38;3.08;;;22.50;83.00;;;;;;5012895;28;20194;-83
2022/06/02 11:24:21;;;;;;;4.05;2.90;;;23.20;81.60;;;;;;4975325;28;20567;-83
2022/06/02 11:26:55;;;;;;;4.30;2.70;;;22.40;80.20;;;;;;4959398;28;20167;-82
2022/06/02 11:29:43;;;;;;;3.00;2.70;;;22.40;81.20;;;;;;5002592;28;20188;-81
2022/06/02 11:32:33;;;;;;;2.95;2.70;;;23.40;81.20;;;;;;5015186;28;20199;-84
2022/06/02 11:35:37;;;;;;;3.40;3.03;;;23.00;79.60;;;;;;5016028;28;20171;-84
2022/06/02 11:38:05;;;;;;;3.50;3.20;;;22.30;81.70;;;;;;5050291;23;20221;-82
2022/06/02 11:40:41;;;;;;;3.53;3.13;;;22.70;82.20;;;;;;5034049;28;20174;-83
2022/06/02 11:43:12;;;;;;;3.15;2.90;;;23.30;76.70;;;;;;5034588;28;20205;-83
2022/06/02 11:46:11;;;;;;;2.70;2.50;;;22.20;80.50;;;;;;5033909;28;20225;-82
2022/06/02 11:49:02;;;;;;;2.53;2.13;;;22.50;81.80;;;;;;5034578;28;20663;-83
2022/06/02 11:51:30;;;;;;;4.72;2.65;;;23.50;78.50;;;;;;5041708;23;20234;-82
2022/06/02 11:54:31;;;;;;;3.28;2.80;;;23.10;79.10;;;;;;4997804;28;20194;-81
2022/06/02 11:56:56;;;;;;;5.43;3.00;;;23.10;78.00;;;;;;4984697;28;20682;-80
2022/06/02 12:00:06;;;;;;;3.17;2.72;;;22.20;77.90;;;;;;4997452;28;20183;-82
2022/06/02 12:02:49;;;;;;;3.05;2.55;;;22.10;77.30;;;;;;4996398;28;20187;-81
2022/06/02 12:05:37;;;;;;;3.25;2.88;;;22.00;80.70;;;;;;4997651;28;20171;-81
2022/06/02 12:08:14;;;;;;;4.85;3.15;;;22.80;74.80;;;;;;4996516;28;20632;-80
2022/06/02 12:11:02;;;;;;;3.60;3.10;;;21.80;81.20;;;;;;4997083;28;20247;-80
2022/06/02 12:14:04;;;;;;;3.30;3.00;;;22.10;80.70;;;;;;4993909;28;20571;-82
2022/06/02 12:16:35;;;;;;;3.35;3.05;;;21.90;79.50;;;;;;4992075;28;20274;-81
2022/06/02 12:19:38;;;;;;;2.80;2.60;;;21.70;79.00;;;;;;4996273;28;20541;-82
2022/06/02 12:22:41;;;;;;;3.53;3.10;;;22.00;76.70;;;;;;4993532;28;20218;-80
2022/06/02 12:25:47;;;;;;;5.00;3.50;;;21.30;74.60;;;;;;4995416;28;20175;-84
2022/06/02 12:28:25;;;;;;;3.10;2.85;;;20.30;78.80;;;;;;4992724;28;20258;-81
2022/06/02 12:31:09;;;;;;;3.35;2.90;;;21.20;78.40;;;;;;4996032;28;20163;-79
2022/06/02 12:33:52;;;;;;;6.10;2.95;;;21.40;80.70;;;;;;4994394;28;20172;-80
2022/06/02 12:36:42;;;;;;;4.05;2.60;;;21.40;79.60;;;;;;4996287;28;20218;-78
2022/06/02 12:39:41;;;;;;;3.30;2.90;;;21.20;77.60;;;;;;4994883;28;20549;-76
2022/06/02 12:42:39;;;;;;;3.15;2.85;;;21.00;79.70;;;;;;4991943;28;20203;-78
2022/06/02 12:45:25;;;;;;;3.13;2.58;;;20.90;80.80;;;;;;4961819;28;20678;-78
2022/06/02 12:48:08;;;;;;;3.97;2.72;;;20.40;82.20;;;;;;4995119;28;20242;-80
2022/06/02 12:50:44;;;;;;;5.28;3.25;;;20.20;78.20;;;;;;4994124;28;20663;-78
2022/06/02 12:53:32;;;;;;;4.85;3.10;;;19.80;79.10;;;;;;4993307;28;20211;-79
2022/06/02 12:56:26;;;;;;;3.63;2.80;;;19.60;77.50;;;;;;4995471;28;20202;-78
2022/06/02 12:59:11;;;;;;;5.57;3.20;;;19.70;82.10;;;;;;4994277;28;20167;-83
2022/06/02 13:01:50;;;;;;;7.13;3.10;;;20.10;79.40;;;;;;4990865;28;20201;-82
2022/06/02 13:04:46;;;;;;;3.80;3.13;;;20.50;77.60;;;;;;4994512;28;20257;-82
2022/06/02 13:07:31;;;;;;;3.30;3.00;;;20.60;78.30;;;;;;4994597;28;20171;-80
2022/06/02 13:10:34;;;;;;;4.45;3.67;;;20.80;80.30;;;;;;4995617;28;20171;-83
2022/06/02 13:13:12;;;;;;;2.88;2.65;;;20.80;79.60;;;;;;5000777;28;20202;-82
2022/06/02 13:15:49;;;;;;;3.08;2.83;;;20.00;80.50;;;;;;4998910;28;20176;-82
2022/06/02 13:18:36;;;;;;;5.05;2.78;;;20.20;80.80;;;;;;4998714;28;20547;-83
2022/06/02 13:21:30;;;;;;;3.35;2.72;;;20.40;81.20;;;;;;4997548;28;20172;-83
2022/06/02 13:24:17;;;;;;;3.00;2.40;;;20.00;82.60;;;;;;4996417;28;20187;-81
2022/06/02 13:27:20;;;;;;;4.00;2.78;;;20.30;82.80;;;;;;4997400;28;20193;-83
2022/06/02 13:30:18;;;;;;;3.72;3.20;;;20.40;79.90;;;;;;4998018;28;20249;-82
2022/06/02 13:33:00;;;;;;;2.85;2.55;;;20.50;77.20;;;;;;4973276;28;20222;-82
2022/06/02 13:35:43;;;;;;;5.78;2.72;;;20.40;79.00;;;;;;4992768;28;20181;-83
2022/06/02 13:38:13;;;;;;;3.35;3.05;;;20.40;81.10;;;;;;4996736;28;20176;-82
2022/06/02 13:41:10;;;;;;;4.95;2.83;;;20.00;76.40;;;;;;4994911;28;20258;-83
2022/06/02 13:43:55;;;;;;;3.72;2.70;;;19.80;80.30;;;;;;4994897;28;20694;-83
2022/06/02 13:47:02;;;;;;;3.80;2.65;;;20.00;78.80;;;;;;4996646;28;20229;-82
2022/06/02 13:49:46;;;;;;;3.28;2.92;;;20.20;81.50;;;;;;4995800;28;20729;-83
2022/06/02 13:52:32;;;;;;;4.55;2.42;;;20.00;80.20;;;;;;4994687;28;20682;-83
2022/06/02 13:59:09;;;;;;;3.00;2.67;;;19.90;78.30;;;;;;4977801;28;20237;-82
2022/06/02 14:01:56;;;;;;;3.22;2.80;;;19.50;81.90;;;;;;4993559;28;20187;-82
2022/06/02 14:04:37;;;;;;;2.55;2.33;;;19.90;83.20;;;;;;4992817;28;20261;-83
2022/06/02 14:07:24;;;;;;;2.67;2.45;;;20.40;85.00;;;;;;4994480;28;20174;-82
2022/06/02 14:10:22;;;;;;;6.00;2.92;;;20.20;84.40;;;;;;4993992;28;20258;-82
2022/06/02 14:13:18;;;;;;;4.70;2.65;;;19.80;84.70;;;;;;4993374;28;20187;-83
2022/06/02 14:16:09;;;;;;;3.63;2.57;;;19.60;81.70;;;;;;4996706;28;20239;-82
2022/06/02 14:21:30;;;;;;;4.25;2.88;;;18.80;82.20;;;;;;5228693;22;20591;-80
2022/06/02 14:24:37;;;;;;;4.43;2.90;;;19.30;83.00;;;;;;4986098;28;20199;-80
2022/06/02 14:27:21;;;;;;;2.87;2.57;;;19.00;81.10;;;;;;4996278;28;20183;-79
2022/06/02 14:29:53;;;;;;;6.63;2.30;;;19.00;83.90;;;;;;4981000;28;20206;-81
2022/06/02 14:32:27;;;;;;;3.30;2.70;;;19.10;83.00;;;;;;4997234;28;20257;-81
2022/06/02 14:34:58;;;;;;;2.60;2.40;;;19.20;80.80;;;;;;4996637;28;20182;-81
2022/06/02 14:37:55;;;;;;;2.70;2.50;;;19.20;81.30;;;;;;4994392;28;20233;-81
2022/06/02 14:40:37;;;;;;;2.57;2.37;;;19.10;80.30;;;;;;4983179;28;20186;-82
2022/06/02 14:43:29;;;;;;;3.10;1.90;;;19.10;80.20;;;;;;4996870;28;20203;-81